sensor_id;sensor_type;location;lat;lon;timestamp;pressure;altitude;pressure_sealevel;temperature;humidity
64551;BME280;74341;44.510;-123.270;2023-12-29T00:02:08;101001.63;;;9.57;100.00
64551;BME280;74341;44.510;-123.270;2023-12-29T00:04:34;100997.06;;;9.58;100.00
64551;BME280;74341;44.510;-123.270;2023-12-29T00:07:01;100997.06;;;9.58;100.00
64551;BME280;74341;44.510;-123.270;2023-12-29T00:09:28;100990.72;;;9.57;100.00
64551;BME280;74341;44.510;-123.270;2023-12-29T00:11:55;100985.25;;;9.57;100.00
64551;BME280;74341;44.510;-123.270;2023-12-29T00:14:21;100978.09;;;9.56;100.00
64551;BME280;74341;44.510;-123.270;2023-12-29T00:16:49;100975.69;;;9.53;100.00
64551;BME280;74341;44.510;-123.270;2023-12-29T00:19:15;100972.91;;;9.45;100.00
64551;BME280;74341;44.510;-123.270;2023-12-29T00:21:41;100962.81;;;9.37;100.00
64551;BME280;74341;44.510;-123.270;2023-12-29T00:24:07;100965.00;;;9.33;100.00
64551;BME280;74341;44.510;-123.270;2023-12-29T00:26:34;100970.63;;;9.32;100.00
64551;BME280;74341;44.510;-123.270;2023-12-29T00:29:01;100968.94;;;9.31;100.00
64551;BME280;74341;44.510;-123.270;2023-12-29T00:31:27;100969.78;;;9.31;100.00
64551;BME280;74341;44.510;-123.270;2023-12-29T00:33:53;100969.78;;;9.31;100.00
64551;BME280;74341;44.510;-123.270;2023-12-29T00:36:20;100965.50;;;9.29;100.00
64551;BME280;74341;44.510;-123.270;2023-12-29T00:38:47;100955.78;;;9.26;100.00
64551;BME280;74341;44.510;-123.270;2023-12-29T00:41:13;100945.16;;;9.23;100.00
64551;BME280;74341;44.510;-123.270;2023-12-29T00:43:39;100952.13;;;9.18;100.00
64551;BME280;74341;44.510;-123.270;2023-12-29T00:46:06;100952.59;;;9.13;100.00
64551;BME280;74341;44.510;-123.270;2023-12-29T00:48:32;100957.22;;;9.12;100.00
64551;BME280;74341;44.510;-123.270;2023-12-29T00:51:01;100965.72;;;9.09;100.00
64551;BME280;74341;44.510;-123.270;2023-12-29T00:53:28;100968.78;;;9.06;100.00
64551;BME280;74341;44.510;-123.270;2023-12-29T00:56:01;100971.28;;;9.00;100.00
64551;BME280;74341;44.510;-123.270;2023-12-29T00:58:28;100972.09;;;8.92;100.00
64551;BME280;74341;44.510;-123.270;2023-12-29T01:00:54;100982.47;;;8.88;100.00
64551;BME280;74341;44.510;-123.270;2023-12-29T01:03:21;100977.84;;;8.89;100.00
64551;BME280;74341;44.510;-123.270;2023-12-29T01:05:47;100962.34;;;8.89;100.00
64551;BME280;74341;44.510;-123.270;2023-12-29T01:08:13;100953.63;;;8.86;100.00
64551;BME280;74341;44.510;-123.270;2023-12-29T01:10:40;100959.88;;;8.78;100.00
64551;BME280;74341;44.510;-123.270;2023-12-29T01:13:06;100948.97;;;8.78;100.00
64551;BME280;74341;44.510;-123.270;2023-12-29T01:15:32;100943.69;;;8.77;100.00
64551;BME280;74341;44.510;-123.270;2023-12-29T01:17:59;100938.84;;;8.70;100.00
64551;BME280;74341;44.510;-123.270;2023-12-29T01:20:25;100932.69;;;8.68;100.00
64551;BME280;74341;44.510;-123.270;2023-12-29T01:22:51;100932.84;;;8.67;100.00
64551;BME280;74341;44.510;-123.270;2023-12-29T01:25:17;100931.47;;;8.63;100.00
64551;BME280;74341;44.510;-123.270;2023-12-29T01:27:44;100916.31;;;8.60;100.00
64551;BME280;74341;44.510;-123.270;2023-12-29T01:30:10;100899.25;;;8.58;100.00
64551;BME280;74341;44.510;-123.270;2023-12-29T01:32:37;100896.31;;;8.51;100.00
64551;BME280;74341;44.510;-123.270;2023-12-29T01:35:04;100902.22;;;8.47;100.00
64551;BME280;74341;44.510;-123.270;2023-12-29T01:37:30;100908.84;;;8.44;100.00
64551;BME280;74341;44.510;-123.270;2023-12-29T01:39:56;100914.72;;;8.40;100.00
64551;BME280;74341;44.510;-123.270;2023-12-29T01:42:23;100917.75;;;8.36;100.00
64551;BME280;74341;44.510;-123.270;2023-12-29T01:44:49;100914.19;;;8.36;100.00
64551;BME280;74341;44.510;-123.270;2023-12-29T01:47:20;100923.03;;;8.38;100.00
64551;BME280;74341;44.510;-123.270;2023-12-29T01:49:48;100922.91;;;8.40;100.00
64551;BME280;74341;44.510;-123.270;2023-12-29T01:52:18;100920.03;;;8.41;100.00
64551;BME280;74341;44.510;-123.270;2023-12-29T01:54:47;100923.75;;;8.40;100.00
64551;BME280;74341;44.510;-123.270;2023-12-29T01:57:16;100924.09;;;8.37;100.00
64551;BME280;74341;44.510;-123.270;2023-12-29T01:59:43;100927.66;;;8.37;100.00
64551;BME280;74341;44.510;-123.270;2023-12-29T02:02:11;100922.03;;;8.39;100.00
64551;BME280;74341;44.510;-123.270;2023-12-29T02:04:38;100918.28;;;8.40;100.00
64551;BME280;74341;44.510;-123.270;2023-12-29T02:07:06;100914.56;;;8.41;100.00
64551;BME280;74341;44.510;-123.270;2023-12-29T02:09:32;100915.75;;;8.38;100.00
64551;BME280;74341;44.510;-123.270;2023-12-29T02:12:00;100915.03;;;8.36;100.00
64551;BME280;74341;44.510;-123.270;2023-12-29T02:14:26;100910.75;;;8.34;100.00
64551;BME280;74341;44.510;-123.270;2023-12-29T02:17:22;100915.50;;;8.32;100.00
64551;BME280;74341;44.510;-123.270;2023-12-29T02:19:46;100918.41;;;8.30;100.00
64551;BME280;74341;44.510;-123.270;2023-12-29T02:22:15;100912.25;;;8.28;100.00
64551;BME280;74341;44.510;-123.270;2023-12-29T02:24:49;100916.66;;;8.29;100.00
64551;BME280;74341;44.510;-123.270;2023-12-29T02:33:21;100919.00;;;8.24;100.00
64551;BME280;74341;44.510;-123.270;2023-12-29T02:35:50;100936.38;;;8.23;100.00
64551;BME280;74341;44.510;-123.270;2023-12-29T02:38:17;100923.75;;;8.22;100.00
64551;BME280;74341;44.510;-123.270;2023-12-29T02:40:44;100927.50;;;8.21;100.00
64551;BME280;74341;44.510;-123.270;2023-12-29T02:43:10;100924.09;;;8.19;100.00
64551;BME280;74341;44.510;-123.270;2023-12-29T02:45:37;100924.25;;;8.17;100.00
64551;BME280;74341;44.510;-123.270;2023-12-29T02:48:03;100918.78;;;8.17;100.00
64551;BME280;74341;44.510;-123.270;2023-12-29T02:50:29;100920.63;;;8.17;100.00
64551;BME280;74341;44.510;-123.270;2023-12-29T02:52:56;100925.53;;;8.13;100.00
64551;BME280;74341;44.510;-123.270;2023-12-29T02:55:22;100909.38;;;8.12;100.00
64551;BME280;74341;44.510;-123.270;2023-12-29T02:57:48;100911.91;;;8.13;100.00
64551;BME280;74341;44.510;-123.270;2023-12-29T03:00:15;100908.34;;;8.13;100.00
64551;BME280;74341;44.510;-123.270;2023-12-29T03:02:41;100909.19;;;8.13;100.00
64551;BME280;74341;44.510;-123.270;2023-12-29T03:05:07;100892.00;;;8.13;100.00
64551;BME280;74341;44.510;-123.270;2023-12-29T03:07:35;100889.13;;;8.14;100.00
64551;BME280;74341;44.510;-123.270;2023-12-29T03:10:01;100891.00;;;8.14;100.00
64551;BME280;74341;44.510;-123.270;2023-12-29T03:12:27;100883.00;;;8.12;100.00
64551;BME280;74341;44.510;-123.270;2023-12-29T03:14:56;100886.72;;;8.11;100.00
64551;BME280;74341;44.510;-123.270;2023-12-29T03:17:22;100880.28;;;8.12;100.00
64551;BME280;74341;44.510;-123.270;2023-12-29T03:19:49;100872.94;;;8.13;100.00
64551;BME280;74341;44.510;-123.270;2023-12-29T03:22:15;100875.69;;;8.13;100.00
64551;BME280;74341;44.510;-123.270;2023-12-29T03:24:42;100868.53;;;8.12;100.00
64551;BME280;74341;44.510;-123.270;2023-12-29T03:27:08;100859.50;;;8.11;100.00
64551;BME280;74341;44.510;-123.270;2023-12-29T03:29:35;100854.19;;;8.10;100.00
64551;BME280;74341;44.510;-123.270;2023-12-29T03:32:01;100843.94;;;8.04;100.00
64551;BME280;74341;44.510;-123.270;2023-12-29T03:34:33;100849.00;;;7.98;100.00
64551;BME280;74341;44.510;-123.270;2023-12-29T03:36:59;100838.41;;;7.95;100.00
64551;BME280;74341;44.510;-123.270;2023-12-29T03:39:25;100840.28;;;7.95;100.00
64551;BME280;74341;44.510;-123.270;2023-12-29T03:41:51;100838.56;;;7.94;100.00
64551;BME280;74341;44.510;-123.270;2023-12-29T03:44:20;100837.72;;;7.93;100.00
64551;BME280;74341;44.510;-123.270;2023-12-29T03:46:47;100824.25;;;7.92;100.00
64551;BME280;74341;44.510;-123.270;2023-12-29T03:49:17;100824.41;;;7.90;100.00
64551;BME280;74341;44.510;-123.270;2023-12-29T03:51:45;100824.41;;;7.90;100.00
64551;BME280;74341;44.510;-123.270;2023-12-29T03:54:12;100827.31;;;7.89;100.00
64551;BME280;74341;44.510;-123.270;2023-12-29T03:56:38;100837.16;;;7.90;100.00
64551;BME280;74341;44.510;-123.270;2023-12-29T03:59:05;100841.06;;;7.87;100.00
64551;BME280;74341;44.510;-123.270;2023-12-29T04:01:33;100829.31;;;7.87;100.00
64551;BME280;74341;44.510;-123.270;2023-12-29T04:04:00;100821.28;;;7.85;100.00
64551;BME280;74341;44.510;-123.270;2023-12-29T04:06:26;100815.16;;;7.83;100.00
64551;BME280;74341;44.510;-123.270;2023-12-29T04:08:53;100815.31;;;7.81;100.00
64551;BME280;74341;44.510;-123.270;2023-12-29T04:11:19;100813.91;;;7.77;100.00
64551;BME280;74341;44.510;-123.270;2023-12-29T04:13:45;100813.91;;;7.77;100.00
64551;BME280;74341;44.510;-123.270;2023-12-29T04:16:12;100816.63;;;7.77;100.00
64551;BME280;74341;44.510;-123.270;2023-12-29T04:18:38;100809.50;;;7.76;100.00
64551;BME280;74341;44.510;-123.270;2023-12-29T04:21:04;100814.94;;;7.76;100.00
64551;BME280;74341;44.510;-123.270;2023-12-29T04:23:30;100814.94;;;7.76;100.00
64551;BME280;74341;44.510;-123.270;2023-12-29T04:26:01;100812.53;;;7.73;100.00
64551;BME280;74341;44.510;-123.270;2023-12-29T04:28:31;100808.78;;;7.74;100.00
64551;BME280;74341;44.510;-123.270;2023-12-29T04:30:57;100814.22;;;7.74;100.00
64551;BME280;74341;44.510;-123.270;2023-12-29T04:33:24;100820.53;;;7.75;100.00
64551;BME280;74341;44.510;-123.270;2023-12-29T04:35:51;100796.03;;;7.75;100.00
64551;BME280;74341;44.510;-123.270;2023-12-29T04:38:17;100799.63;;;7.75;100.00
64551;BME280;74341;44.510;-123.270;2023-12-29T04:40:46;100799.75;;;7.74;100.00
64551;BME280;74341;44.510;-123.270;2023-12-29T04:43:15;100786.31;;;7.72;100.00
64551;BME280;74341;44.510;-123.270;2023-12-29T04:45:41;100789.91;;;7.73;100.00
64551;BME280;74341;44.510;-123.270;2023-12-29T04:48:10;100788.19;;;7.72;100.00
64551;BME280;74341;44.510;-123.270;2023-12-29T04:50:41;100784.63;;;7.71;100.00
64551;BME280;74341;44.510;-123.270;2023-12-29T04:53:07;100789.19;;;7.71;100.00
64551;BME280;74341;44.510;-123.270;2023-12-29T04:55:33;100792.94;;;7.70;100.00
64551;BME280;74341;44.510;-123.270;2023-12-29T04:58:00;100778.63;;;7.68;100.00
64551;BME280;74341;44.510;-123.270;2023-12-29T05:00:26;100777.75;;;7.67;100.00
64551;BME280;74341;44.510;-123.270;2023-12-29T05:02:52;100770.63;;;7.66;100.00
64551;BME280;74341;44.510;-123.270;2023-12-29T05:05:19;100771.63;;;7.65;100.00
64551;BME280;74341;44.510;-123.270;2023-12-29T05:07:45;100758.00;;;7.65;100.00
64551;BME280;74341;44.510;-123.270;2023-12-29T05:10:11;100759.88;;;7.65;100.00
64551;BME280;74341;44.510;-123.270;2023-12-29T05:12:38;100760.88;;;7.64;100.00
64551;BME280;74341;44.510;-123.270;2023-12-29T05:15:05;100758.31;;;7.62;100.00
64551;BME280;74341;44.510;-123.270;2023-12-29T05:17:31;100753.22;;;7.59;100.00
64551;BME280;74341;44.510;-123.270;2023-12-29T05:19:57;100757.97;;;7.57;100.00
64551;BME280;74341;44.510;-123.270;2023-12-29T05:22:24;100758.81;;;7.57;100.00
64551;BME280;74341;44.510;-123.270;2023-12-29T05:24:50;100743.47;;;7.56;100.00
64551;BME280;74341;44.510;-123.270;2023-12-29T05:27:16;100740.06;;;7.54;100.00
64551;BME280;74341;44.510;-123.270;2023-12-29T05:29:43;100735.66;;;7.53;100.00
64551;BME280;74341;44.510;-123.270;2023-12-29T05:32:09;100727.63;;;7.52;100.00
64551;BME280;74341;44.510;-123.270;2023-12-29T05:34:35;100729.31;;;7.53;100.00
64551;BME280;74341;44.510;-123.270;2023-12-29T05:37:02;100715.88;;;7.51;100.00
64551;BME280;74341;44.510;-123.270;2023-12-29T05:39:28;100704.31;;;7.49;100.00
64551;BME280;74341;44.510;-123.270;2023-12-29T05:41:55;100704.44;;;7.48;100.00
64551;BME280;74341;44.510;-123.270;2023-12-29T05:44:21;100702.63;;;7.48;100.00
64551;BME280;74341;44.510;-123.270;2023-12-29T05:46:48;100700.03;;;7.47;100.00
64551;BME280;74341;44.510;-123.270;2023-12-29T05:49:17;100697.31;;;7.47;100.00
64551;BME280;74341;44.510;-123.270;2023-12-29T05:51:45;100683.72;;;7.47;100.00
64551;BME280;74341;44.510;-123.270;2023-12-29T05:54:11;100679.97;;;7.48;100.00
64551;BME280;74341;44.510;-123.270;2023-12-29T05:56:37;100678.28;;;7.47;100.00
64551;BME280;74341;44.510;-123.270;2023-12-29T05:59:07;100676.56;;;7.46;100.00
64551;BME280;74341;44.510;-123.270;2023-12-29T06:01:33;100665.84;;;7.44;100.00
64551;BME280;74341;44.510;-123.270;2023-12-29T06:03:59;100670.56;;;7.42;100.00
64551;BME280;74341;44.510;-123.270;2023-12-29T06:06:26;100660.88;;;7.39;100.00
64551;BME280;74341;44.510;-123.270;2023-12-29T06:08:52;100658.16;;;7.39;100.00
64551;BME280;74341;44.510;-123.270;2023-12-29T06:11:18;100657.63;;;7.36;100.00
64551;BME280;74341;44.510;-123.270;2023-12-29T06:13:45;100653.03;;;7.36;100.00
64551;BME280;74341;44.510;-123.270;2023-12-29T06:16:20;100654.91;;;7.36;100.00
64551;BME280;74341;44.510;-123.270;2023-12-29T06:18:50;100653.19;;;7.35;100.00
64551;BME280;74341;44.510;-123.270;2023-12-29T06:21:17;100651.50;;;7.34;100.00
64551;BME280;74341;44.510;-123.270;2023-12-29T06:23:44;100638.88;;;7.33;100.00
64551;BME280;74341;44.510;-123.270;2023-12-29T06:26:18;100639.88;;;7.32;100.00
64551;BME280;74341;44.510;-123.270;2023-12-29T06:28:45;100643.94;;;7.28;100.00
64551;BME280;74341;44.510;-123.270;2023-12-29T06:31:11;100637.97;;;7.24;100.00
64551;BME280;74341;44.510;-123.270;2023-12-29T06:33:42;100640.13;;;7.20;100.00
64551;BME280;74341;44.510;-123.270;2023-12-29T06:36:12;100627.19;;;7.14;100.00
64551;BME280;74341;44.510;-123.270;2023-12-29T06:38:41;100625.91;;;7.09;100.00
64551;BME280;74341;44.510;-123.270;2023-12-29T06:41:11;100622.25;;;7.00;100.00
64551;BME280;74341;44.510;-123.270;2023-12-29T06:43:38;100615.91;;;6.91;100.00
64551;BME280;74341;44.510;-123.270;2023-12-29T06:46:05;100614.09;;;6.82;100.00
64551;BME280;74341;44.510;-123.270;2023-12-29T06:48:31;100609.44;;;6.74;100.00
64551;BME280;74341;44.510;-123.270;2023-12-29T06:50:58;100609.19;;;6.68;100.00
64551;BME280;74341;44.510;-123.270;2023-12-29T06:53:24;100604.38;;;6.61;100.00
64551;BME280;74341;44.510;-123.270;2023-12-29T06:55:51;100612.13;;;6.56;100.00
64551;BME280;74341;44.510;-123.270;2023-12-29T06:58:17;100612.72;;;6.50;100.00
64551;BME280;74341;44.510;-123.270;2023-12-29T07:00:43;100604.22;;;6.45;100.00
64551;BME280;74341;44.510;-123.270;2023-12-29T07:03:13;100606.38;;;6.41;100.00
64551;BME280;74341;44.510;-123.270;2023-12-29T07:05:40;100600.53;;;6.36;100.00
64551;BME280;74341;44.510;-123.270;2023-12-29T07:08:06;100595.41;;;6.33;100.00
64551;BME280;74341;44.510;-123.270;2023-12-29T07:10:33;100588.41;;;6.31;100.00
64551;BME280;74341;44.510;-123.270;2023-12-29T07:12:59;100583.59;;;6.24;100.00
64551;BME280;74341;44.510;-123.270;2023-12-29T07:15:26;100577.06;;;6.17;100.00
64551;BME280;74341;44.510;-123.270;2023-12-29T07:17:52;100570.38;;;6.12;100.00
64551;BME280;74341;44.510;-123.270;2023-12-29T07:20:18;100568.25;;;6.05;100.00
64551;BME280;74341;44.510;-123.270;2023-12-29T07:22:45;100570.56;;;6.00;100.00
64551;BME280;74341;44.510;-123.270;2023-12-29T07:25:11;100558.41;;;5.95;100.00
64551;BME280;74341;44.510;-123.270;2023-12-29T07:27:38;100551.75;;;5.89;100.00
64551;BME280;74341;44.510;-123.270;2023-12-29T07:30:05;100546.75;;;5.84;100.00
64551;BME280;74341;44.510;-123.270;2023-12-29T07:32:31;100550.63;;;5.82;100.00
64551;BME280;74341;44.510;-123.270;2023-12-29T07:34:58;100537.91;;;5.82;100.00
64551;BME280;74341;44.510;-123.270;2023-12-29T07:37:24;100538.78;;;5.83;100.00
64551;BME280;74341;44.510;-123.270;2023-12-29T07:39:50;100535.34;;;5.81;100.00
64551;BME280;74341;44.510;-123.270;2023-12-29T07:42:17;100532.63;;;5.81;100.00
64551;BME280;74341;44.510;-123.270;2023-12-29T07:44:44;100524.47;;;5.81;100.00
64551;BME280;74341;44.510;-123.270;2023-12-29T07:47:10;100515.34;;;5.82;100.00
64551;BME280;74341;44.510;-123.270;2023-12-29T07:49:37;100520.78;;;5.82;100.00
64551;BME280;74341;44.510;-123.270;2023-12-29T07:52:03;100531.50;;;5.83;100.00
64551;BME280;74341;44.510;-123.270;2023-12-29T07:54:30;100532.34;;;5.84;100.00
64551;BME280;74341;44.510;-123.270;2023-12-29T07:56:56;100542.34;;;5.83;100.00
64551;BME280;74341;44.510;-123.270;2023-12-29T07:59:22;100544.03;;;5.84;100.00
64551;BME280;74341;44.510;-123.270;2023-12-29T08:01:48;100535.75;;;5.86;100.00
64551;BME280;74341;44.510;-123.270;2023-12-29T08:04:15;100527.31;;;5.89;100.00
64551;BME280;74341;44.510;-123.270;2023-12-29T08:06:41;100529.59;;;5.94;100.00
64551;BME280;74341;44.510;-123.270;2023-12-29T08:09:07;100534.72;;;5.97;100.00
64551;BME280;74341;44.510;-123.270;2023-12-29T08:11:34;100539.00;;;5.99;100.00
64551;BME280;74341;44.510;-123.270;2023-12-29T08:14:00;100537.69;;;6.03;100.00
64551;BME280;74341;44.510;-123.270;2023-12-29T08:16:27;100548.25;;;6.06;100.00
64551;BME280;74341;44.510;-123.270;2023-12-29T08:18:53;100548.81;;;6.10;100.00
64551;BME280;74341;44.510;-123.270;2023-12-29T08:21:21;100542.22;;;6.13;100.00
64551;BME280;74341;44.510;-123.270;2023-12-29T08:23:48;100537.34;;;6.16;100.00
64551;BME280;74341;44.510;-123.270;2023-12-29T08:26:15;100547.06;;;6.19;100.00
64551;BME280;74341;44.510;-123.270;2023-12-29T08:28:41;100559.47;;;6.21;100.00
64551;BME280;74341;44.510;-123.270;2023-12-29T08:31:08;100553.72;;;6.24;100.00
64551;BME280;74341;44.510;-123.270;2023-12-29T08:33:34;100552.56;;;6.27;100.00
64551;BME280;74341;44.510;-123.270;2023-12-29T08:36:02;100537.00;;;6.29;100.00
64551;BME280;74341;44.510;-123.270;2023-12-29T08:38:30;100514.94;;;6.32;100.00
64551;BME280;74341;44.510;-123.270;2023-12-29T08:40:57;100504.63;;;6.36;100.00
64551;BME280;74341;44.510;-123.270;2023-12-29T08:43:24;100501.63;;;6.39;100.00
64551;BME280;74341;44.510;-123.270;2023-12-29T08:45:50;100494.31;;;6.39;100.00
64551;BME280;74341;44.510;-123.270;2023-12-29T08:48:17;100496.88;;;6.41;100.00
64551;BME280;74341;44.510;-123.270;2023-12-29T08:50:43;100502.31;;;6.41;100.00
64551;BME280;74341;44.510;-123.270;2023-12-29T08:53:12;100496.88;;;6.41;100.00
64551;BME280;74341;44.510;-123.270;2023-12-29T08:55:38;100476.88;;;6.42;100.00
64551;BME280;74341;44.510;-123.270;2023-12-29T08:58:04;100479.59;;;6.42;100.00
64551;BME280;74341;44.510;-123.270;2023-12-29T09:00:31;100473.31;;;6.41;100.00
64551;BME280;74341;44.510;-123.270;2023-12-29T09:02:57;100456.16;;;6.41;100.00
64551;BME280;74341;44.510;-123.270;2023-12-29T09:05:24;100470.75;;;6.40;100.00
64551;BME280;74341;44.510;-123.270;2023-12-29T09:07:50;100447.31;;;6.39;100.00
64551;BME280;74341;44.510;-123.270;2023-12-29T09:10:16;100429.34;;;6.38;100.00
64551;BME280;74341;44.510;-123.270;2023-12-29T09:12:43;100435.75;;;6.37;100.00
64551;BME280;74341;44.510;-123.270;2023-12-29T09:15:10;100472.06;;;6.36;100.00
64551;BME280;74341;44.510;-123.270;2023-12-29T09:17:36;100483.78;;;6.36;100.00
64551;BME280;74341;44.510;-123.270;2023-12-29T09:20:02;100484.78;;;6.35;100.00
64551;BME280;74341;44.510;-123.270;2023-12-29T09:22:30;100491.06;;;6.36;100.00
64551;BME280;74341;44.510;-123.270;2023-12-29T09:24:57;100471.91;;;6.37;100.00
64551;BME280;74341;44.510;-123.270;2023-12-29T09:27:23;100460.19;;;6.37;100.00
64551;BME280;74341;44.510;-123.270;2023-12-29T09:29:50;100459.66;;;6.33;100.00
64551;BME280;74341;44.510;-123.270;2023-12-29T09:32:16;100452.19;;;6.35;100.00
64551;BME280;74341;44.510;-123.270;2023-12-29T09:34:42;100464.06;;;6.34;100.00
64551;BME280;74341;44.510;-123.270;2023-12-29T09:37:09;100466.06;;;6.32;100.00
64551;BME280;74341;44.510;-123.270;2023-12-29T09:39:35;100465.38;;;6.30;100.00
64551;BME280;74341;44.510;-123.270;2023-12-29T09:42:03;100460.09;;;6.28;100.00
64551;BME280;74341;44.510;-123.270;2023-12-29T09:44:32;100476.38;;;6.28;100.00
64551;BME280;74341;44.510;-123.270;2023-12-29T09:47:04;100482.69;;;6.29;100.00
64551;BME280;74341;44.510;-123.270;2023-12-29T09:49:37;100475.53;;;6.28;100.00
64551;BME280;74341;44.510;-123.270;2023-12-29T09:52:09;100486.25;;;6.30;100.00
64551;BME280;74341;44.510;-123.270;2023-12-29T09:54:37;100482.69;;;6.29;100.00
64551;BME280;74341;44.510;-123.270;2023-12-29T09:57:07;100488.97;;;6.30;100.00
64551;BME280;74341;44.510;-123.270;2023-12-29T09:59:35;100488.81;;;6.31;100.00
64551;BME280;74341;44.510;-123.270;2023-12-29T10:02:14;100474.38;;;6.31;100.00
64551;BME280;74341;44.510;-123.270;2023-12-29T10:04:41;100461.81;;;6.30;100.00
64551;BME280;74341;44.510;-123.270;2023-12-29T10:07:13;100455.69;;;6.27;100.00
64551;BME280;74341;44.510;-123.270;2023-12-29T10:09:41;100455.84;;;6.26;100.00
64551;BME280;74341;44.510;-123.270;2023-12-29T10:12:09;100466.00;;;6.24;100.00
64551;BME280;74341;44.510;-123.270;2023-12-29T10:15:05;100456.00;;;6.24;100.00
64551;BME280;74341;44.510;-123.270;2023-12-29T10:23:11;100443.22;;;6.17;100.00
64551;BME280;74341;44.510;-123.270;2023-12-29T10:25:40;100460.34;;;6.17;100.00
64551;BME280;74341;44.510;-123.270;2023-12-29T10:28:06;100448.47;;;6.18;100.00
64551;BME280;74341;44.510;-123.270;2023-12-29T10:30:34;100451.91;;;6.20;100.00
64551;BME280;74341;44.510;-123.270;2023-12-29T10:33:00;100437.44;;;6.20;100.00
64551;BME280;74341;44.510;-123.270;2023-12-29T10:35:29;100435.75;;;6.19;100.00
64551;BME280;74341;44.510;-123.270;2023-12-29T10:38:07;100435.91;;;6.17;100.00
64551;BME280;74341;44.510;-123.270;2023-12-29T10:40:34;100435.22;;;6.15;100.00
64551;BME280;74341;44.510;-123.270;2023-12-29T10:43:00;100415.38;;;6.15;100.00
64551;BME280;74341;44.510;-123.270;2023-12-29T10:45:32;100414.66;;;6.13;100.00
64551;BME280;74341;44.510;-123.270;2023-12-29T10:48:02;100422.94;;;6.11;100.00
64551;BME280;74341;44.510;-123.270;2023-12-29T10:50:28;100416.81;;;6.09;100.00
64551;BME280;74341;44.510;-123.270;2023-12-29T10:53:16;100398.16;;;6.06;100.00
64551;BME280;74341;44.510;-123.270;2023-12-29T10:55:43;100418.44;;;6.02;100.00
64551;BME280;74341;44.510;-123.270;2023-12-29T10:58:09;100423.16;;;6.00;100.00
64551;BME280;74341;44.510;-123.270;2023-12-29T11:00:36;100414.19;;;5.99;100.00
64551;BME280;74341;44.510;-123.270;2023-12-29T11:03:02;100410.63;;;5.99;100.00
64551;BME280;74341;44.510;-123.270;2023-12-29T11:05:29;100405.63;;;5.94;100.00
64551;BME280;74341;44.510;-123.270;2023-12-29T11:07:55;100404.91;;;5.92;100.00
64551;BME280;74341;44.510;-123.270;2023-12-29T11:10:25;100423.06;;;5.92;100.00
64551;BME280;74341;44.510;-123.270;2023-12-29T11:12:52;100418.47;;;5.92;100.00
64551;BME280;74341;44.510;-123.270;2023-12-29T11:15:19;100414.75;;;5.93;100.00
64551;BME280;74341;44.510;-123.270;2023-12-29T11:17:46;100397.63;;;5.93;100.00
64551;BME280;74341;44.510;-123.270;2023-12-29T11:20:16;100403.19;;;5.91;100.00
64551;BME280;74341;44.510;-123.270;2023-12-29T11:22:45;100404.22;;;5.90;100.00
64551;BME280;74341;44.510;-123.270;2023-12-29T11:25:12;100390.50;;;5.92;100.00
64551;BME280;74341;44.510;-123.270;2023-12-29T11:27:38;100393.53;;;5.88;100.00
64551;BME280;74341;44.510;-123.270;2023-12-29T11:30:05;100370.25;;;5.86;100.00
64551;BME280;74341;44.510;-123.270;2023-12-29T11:41:20;100375.38;;;5.89;100.00
64551;BME280;74341;44.510;-123.270;2023-12-29T11:43:57;100378.22;;;5.87;100.00
64551;BME280;74341;44.510;-123.270;2023-12-29T11:46:42;100386.53;;;5.86;100.00
64551;BME280;74341;44.510;-123.270;2023-12-29T11:49:10;100381.25;;;5.84;100.00
64551;BME280;74341;44.510;-123.270;2023-12-29T11:54:09;100373.84;;;5.86;100.00
64551;BME280;74341;44.510;-123.270;2023-12-29T12:01:49;100376.38;;;5.88;100.00
64551;BME280;74341;44.510;-123.270;2023-12-29T12:07:04;100345.81;;;5.86;100.00
64551;BME280;74341;44.510;-123.270;2023-12-29T12:09:31;100347.69;;;5.85;100.00
64551;BME280;74341;44.510;-123.270;2023-12-29T12:12:04;100336.00;;;5.85;100.00
64551;BME280;74341;44.510;-123.270;2023-12-29T12:14:51;100326.16;;;5.84;100.00
64551;BME280;74341;44.510;-123.270;2023-12-29T12:17:27;100303.75;;;5.82;100.00
64551;BME280;74341;44.510;-123.270;2023-12-29T12:19:58;100305.06;;;5.78;100.00
64551;BME280;74341;44.510;-123.270;2023-12-29T12:22:25;100307.09;;;5.76;100.00
64551;BME280;74341;44.510;-123.270;2023-12-29T12:24:58;100317.94;;;5.76;100.00
64551;BME280;74341;44.510;-123.270;2023-12-29T12:27:26;100305.53;;;5.73;100.00
64551;BME280;74341;44.510;-123.270;2023-12-29T12:29:57;100305.69;;;5.71;100.00
64551;BME280;74341;44.510;-123.270;2023-12-29T12:32:29;100286.00;;;5.69;100.00
64551;BME280;74341;44.510;-123.270;2023-12-29T12:34:56;100283.44;;;5.68;100.00
64551;BME280;74341;44.510;-123.270;2023-12-29T12:37:24;100283.59;;;5.66;100.00
64551;BME280;74341;44.510;-123.270;2023-12-29T12:39:50;100286.44;;;5.65;100.00
64551;BME280;74341;44.510;-123.270;2023-12-29T12:42:17;100284.91;;;5.62;100.00
64551;BME280;74341;44.510;-123.270;2023-12-29T12:44:56;100280.66;;;5.60;100.00
64551;BME280;74341;44.510;-123.270;2023-12-29T12:47:45;100268.25;;;5.57;100.00
64551;BME280;74341;44.510;-123.270;2023-12-29T12:50:16;100261.44;;;5.53;100.00
64551;BME280;74341;44.510;-123.270;2023-12-29T12:52:42;100255.63;;;5.48;100.00
64551;BME280;74341;44.510;-123.270;2023-12-29T12:55:09;100265.78;;;5.46;100.00